createdAt,value
2023-04-10T00:00:15.121Z,5.71
2023-04-10T00:01:15.083Z,5.69
2023-04-10T00:02:15.159Z,5.65
2023-04-10T00:03:15.327Z,5.64
2023-04-10T00:04:15.427Z,5.64
2023-04-10T00:05:15.282Z,5.64
2023-04-10T00:06:15.050Z,5.65
2023-04-10T00:07:14.999Z,5.65
2023-04-10T00:08:14.985Z,5.69
2023-04-10T00:09:14.983Z,5.68
2023-04-10T00:10:14.980Z,5.68
2023-04-10T00:11:14.964Z,5.65
2023-04-10T00:12:14.981Z,5.56
2023-04-10T00:13:14.961Z,5.46
2023-04-10T00:14:14.958Z,5.44
2023-04-10T00:15:14.936Z,5.38
2023-04-10T00:16:15.020Z,5.38
2023-04-10T00:17:14.940Z,5.41
2023-04-10T00:18:14.929Z,5.41
2023-04-10T00:19:15.029Z,5.39
2023-04-10T00:20:14.893Z,5.39
2023-04-10T00:21:14.878Z,5.38
2023-04-10T00:22:14.849Z,5.36
2023-04-10T00:23:14.868Z,5.33
2023-04-10T00:24:14.830Z,5.33
2023-04-10T00:25:14.824Z,5.30
2023-04-10T00:26:14.812Z,5.29
2023-04-10T00:27:14.814Z,5.30
2023-04-10T00:28:14.801Z,5.29
2023-04-10T00:29:14.800Z,5.26
2023-04-10T00:30:14.763Z,5.25
2023-04-10T00:31:14.758Z,5.23
2023-04-10T00:32:14.803Z,5.17
2023-04-10T00:33:14.764Z,5.12
2023-04-10T00:34:14.737Z,5.10
2023-04-10T00:35:14.752Z,5.04
2023-04-10T00:36:14.745Z,4.99
2023-04-10T00:37:14.716Z,4.90
2023-04-10T00:38:14.708Z,4.84
2023-04-10T00:39:14.684Z,4.86
2023-04-10T00:40:14.720Z,4.87
2023-04-10T00:41:14.678Z,4.86
2023-04-10T00:42:14.651Z,4.87
2023-04-10T00:43:14.659Z,4.86
2023-04-10T00:44:14.652Z,4.87
2023-04-10T00:45:14.657Z,4.90
2023-04-10T00:46:14.863Z,4.90
2023-04-10T00:47:14.625Z,4.90
2023-04-10T00:48:14.587Z,4.92
2023-04-10T00:49:14.591Z,4.92
2023-04-10T00:50:14.591Z,4.92
2023-04-10T00:51:14.564Z,4.93
2023-04-10T00:52:14.563Z,4.93
2023-04-10T00:53:14.549Z,4.94
2023-04-10T00:54:14.541Z,4.94
2023-04-10T00:55:14.540Z,4.97
2023-04-10T00:56:14.524Z,4.94
2023-04-10T00:57:14.530Z,4.96
2023-04-10T00:58:14.592Z,4.96
2023-04-10T00:59:14.494Z,4.94
2023-04-10T01:00:14.479Z,4.96
2023-04-10T01:01:14.500Z,4.93
2023-04-10T01:02:14.571Z,4.89
2023-04-10T01:03:14.699Z,4.89
2023-04-10T01:04:14.541Z,4.87
2023-04-10T01:05:14.435Z,4.84
2023-04-10T01:06:14.400Z,4.87
2023-04-10T01:07:14.404Z,4.87
2023-04-10T01:08:14.400Z,4.87
2023-04-10T01:09:14.387Z,4.87
2023-04-10T01:10:14.383Z,4.82
2023-04-10T01:11:14.386Z,4.78
2023-04-10T01:12:14.351Z,4.80
2023-04-10T01:13:14.361Z,4.78
2023-04-10T01:14:14.360Z,4.75
2023-04-10T01:15:14.350Z,4.68
2023-04-10T01:16:14.352Z,4.60
2023-04-10T01:17:14.339Z,4.55
2023-04-10T01:18:14.313Z,4.53
2023-04-10T01:19:14.286Z,4.53
2023-04-10T01:20:14.340Z,4.49
2023-04-10T01:21:14.282Z,4.44
2023-04-10T01:22:14.263Z,4.38
2023-04-10T01:23:14.266Z,4.35
2023-04-10T01:24:14.262Z,4.32
2023-04-10T01:25:14.216Z,4.32
2023-04-10T01:26:14.260Z,4.28
2023-04-10T01:27:14.203Z,4.32
2023-04-10T01:28:14.192Z,4.30
2023-04-10T01:29:14.221Z,4.31
2023-04-10T01:30:14.184Z,4.30
2023-04-10T01:31:14.214Z,4.30
2023-04-10T01:32:14.161Z,4.26
2023-04-10T01:33:14.162Z,4.23
2023-04-10T01:34:14.175Z,4.20
2023-04-10T01:35:14.152Z,4.16
2023-04-10T01:36:14.117Z,4.13
2023-04-10T01:37:14.130Z,4.13
2023-04-10T01:38:14.086Z,4.12
2023-04-10T01:39:14.103Z,4.13
2023-04-10T01:40:14.087Z,4.13
2023-04-10T01:41:14.113Z,4.16
2023-04-10T01:42:14.072Z,4.17
2023-04-10T01:43:14.052Z,4.19
2023-04-10T01:44:14.041Z,4.20
2023-04-10T01:45:14.034Z,4.22
2023-04-10T01:46:14.026Z,4.22
2023-04-10T01:47:14.482Z,4.22
2023-04-10T01:48:13.986Z,4.23
2023-04-10T01:49:13.993Z,4.22
2023-04-10T01:50:13.986Z,4.22
2023-04-10T01:51:13.978Z,4.22
2023-04-10T01:52:13.971Z,4.22
2023-04-10T01:53:13.987Z,4.22
2023-04-10T01:54:13.943Z,4.23
2023-04-10T01:55:13.942Z,4.23
2023-04-10T01:56:13.973Z,4.22
2023-04-10T01:57:13.916Z,4.24
2023-04-10T01:58:14.068Z,4.26
2023-04-10T01:59:13.889Z,4.28
2023-04-10T02:00:13.921Z,4.30
2023-04-10T02:01:22.443Z,4.31
2023-04-10T02:02:13.964Z,4.31
2023-04-10T02:03:14.113Z,4.30
2023-04-10T02:04:13.975Z,4.32
2023-04-10T02:05:13.826Z,4.32
2023-04-10T02:06:13.829Z,4.35
2023-04-10T02:07:13.844Z,4.35
2023-04-10T02:08:13.808Z,4.37
2023-04-10T02:09:13.815Z,4.32
2023-04-10T02:10:13.798Z,4.31
2023-04-10T02:11:13.776Z,4.24
2023-04-10T02:12:13.775Z,4.22
2023-04-10T02:13:13.749Z,4.20
2023-04-10T02:14:13.737Z,4.17
2023-04-10T02:15:13.839Z,4.16
2023-04-10T02:16:13.803Z,4.16
2023-04-10T02:17:13.708Z,4.16
2023-04-10T02:18:13.700Z,4.17
2023-04-10T02:19:13.687Z,4.19
2023-04-10T02:20:13.719Z,4.23
2023-04-10T02:21:13.680Z,4.22
2023-04-10T02:22:13.664Z,4.20
2023-04-10T02:23:13.680Z,4.23
2023-04-10T02:24:13.643Z,4.23
2023-04-10T02:25:13.643Z,4.24
2023-04-10T02:26:13.649Z,4.24
2023-04-10T02:27:13.610Z,4.23
2023-04-10T02:28:13.619Z,4.20
2023-04-10T02:29:13.586Z,4.22
2023-04-10T02:30:13.573Z,4.16
2023-04-10T02:31:13.631Z,4.16
2023-04-10T02:32:13.550Z,4.13
2023-04-10T02:33:13.546Z,4.13
2023-04-10T02:34:13.550Z,4.08
2023-04-10T02:35:13.542Z,4.04
2023-04-10T02:36:13.536Z,4.02
2023-04-10T02:37:13.557Z,3.99
2023-04-10T02:38:15.569Z,3.98
2023-04-10T02:39:13.490Z,3.96
2023-04-10T02:40:13.488Z,3.96
2023-04-10T02:41:13.466Z,3.94
2023-04-10T02:42:13.472Z,3.94
2023-04-10T02:43:13.493Z,3.91
2023-04-10T02:44:13.476Z,3.86
2023-04-10T02:45:13.435Z,3.86
2023-04-10T02:46:13.457Z,3.83
2023-04-10T02:47:13.409Z,3.83
2023-04-10T02:48:13.434Z,3.83
2023-04-10T02:49:13.398Z,3.80
2023-04-10T02:50:13.400Z,3.78
2023-04-10T02:51:13.379Z,3.74
2023-04-10T02:52:13.373Z,3.70
2023-04-10T02:53:13.390Z,3.70
2023-04-10T02:54:13.338Z,3.68
2023-04-10T02:55:13.316Z,3.68
2023-04-10T02:56:13.310Z,3.68
2023-04-10T02:57:13.305Z,3.66
2023-04-10T02:58:15.052Z,3.65
2023-04-10T02:59:13.334Z,3.63
2023-04-10T03:00:13.295Z,3.63
2023-04-10T03:01:13.279Z,3.63
2023-04-10T03:02:13.355Z,3.63
2023-04-10T03:03:13.343Z,3.68
2023-04-10T03:04:13.479Z,3.68
2023-04-10T03:05:13.230Z,3.66
2023-04-10T03:06:13.242Z,3.68
2023-04-10T03:07:13.219Z,3.68
2023-04-10T03:08:13.202Z,3.65
2023-04-10T03:09:13.228Z,3.65
2023-04-10T03:10:13.194Z,3.66
2023-04-10T03:11:13.177Z,3.65
2023-04-10T03:12:13.164Z,3.66
2023-04-10T03:13:13.164Z,3.65
2023-04-10T03:14:13.152Z,3.66
2023-04-10T03:15:13.162Z,3.65
2023-04-10T03:16:13.207Z,3.62
2023-04-10T03:17:13.110Z,3.62
2023-04-10T03:18:13.158Z,3.62
2023-04-10T03:19:13.073Z,3.62
2023-04-10T03:20:13.092Z,3.60
2023-04-10T03:21:13.088Z,3.60
2023-04-10T03:22:13.048Z,3.62
2023-04-10T03:23:13.051Z,3.59
2023-04-10T03:24:13.037Z,3.60
2023-04-10T03:25:13.024Z,3.62
2023-04-10T03:26:13.063Z,3.63
2023-04-10T03:27:13.066Z,3.62
2023-04-10T03:28:13.006Z,3.62
2023-04-10T03:29:12.994Z,3.60
2023-04-10T03:30:13.002Z,3.56
2023-04-10T03:31:13.024Z,3.55
2023-04-10T03:32:12.976Z,3.51
2023-04-10T03:33:12.998Z,3.50
2023-04-10T03:34:12.944Z,3.45
2023-04-10T03:35:12.924Z,3.45
2023-04-10T03:36:12.936Z,3.42
2023-04-10T03:37:12.967Z,3.31
2023-04-10T03:38:12.946Z,3.29
2023-04-10T03:39:12.899Z,3.28
2023-04-10T03:40:12.895Z,3.26
2023-04-10T03:41:12.860Z,3.29
2023-04-10T03:42:12.882Z,3.32
2023-04-10T03:43:12.857Z,3.32
2023-04-10T03:44:12.874Z,3.36
2023-04-10T03:45:12.826Z,3.36
2023-04-10T03:46:12.826Z,3.37
2023-04-10T03:47:12.801Z,3.37
2023-04-10T03:48:12.805Z,3.32
2023-04-10T03:49:12.805Z,3.34
2023-04-10T03:50:13.197Z,3.32
2023-04-10T03:51:12.780Z,3.32
2023-04-10T03:52:12.780Z,3.29
2023-04-10T03:53:12.759Z,3.32
2023-04-10T03:54:12.741Z,3.32
2023-04-10T03:55:12.732Z,3.29
2023-04-10T03:56:12.766Z,3.28
2023-04-10T03:57:12.721Z,3.28
2023-04-10T03:58:12.708Z,3.29
2023-04-10T03:59:12.703Z,3.22
2023-04-10T04:00:12.682Z,3.16
2023-04-10T04:01:12.663Z,3.08
2023-04-10T04:02:12.746Z,3.00
2023-04-10T04:03:13.075Z,2.89
2023-04-10T04:04:12.786Z,2.87
2023-04-10T04:05:12.779Z,2.86
2023-04-10T04:06:12.636Z,2.85
2023-04-10T04:07:12.609Z,2.86
2023-04-10T04:08:12.637Z,2.83
2023-04-10T04:09:12.590Z,2.75
2023-04-10T04:10:12.579Z,2.72
2023-04-10T04:11:12.559Z,2.68
2023-04-10T04:12:12.566Z,2.64
2023-04-10T04:13:12.561Z,2.64
2023-04-10T04:14:12.574Z,2.67
2023-04-10T04:15:12.552Z,2.69
2023-04-10T04:16:12.623Z,2.75
2023-04-10T04:17:12.521Z,2.80
2023-04-10T04:18:12.505Z,2.83
2023-04-10T04:19:12.501Z,2.87
2023-04-10T04:20:12.521Z,2.89
2023-04-10T04:21:12.470Z,2.90
2023-04-10T04:22:12.464Z,2.93
2023-04-10T04:23:12.448Z,2.95
2023-04-10T04:24:12.430Z,2.95
2023-04-10T04:25:12.430Z,2.98
2023-04-10T04:26:12.461Z,2.98
2023-04-10T04:27:12.396Z,3.01
2023-04-10T04:28:12.392Z,2.98
2023-04-10T04:29:12.406Z,3.01
2023-04-10T04:30:12.403Z,3.01
2023-04-10T04:31:12.413Z,3.00
2023-04-10T04:32:12.427Z,2.98
2023-04-10T04:33:12.355Z,3.00
2023-04-10T04:34:12.357Z,3.00
2023-04-10T04:35:12.333Z,2.98
2023-04-10T04:36:12.348Z,3.00
2023-04-10T04:37:12.336Z,3.01
2023-04-10T04:38:12.319Z,3.00
2023-04-10T04:39:12.278Z,2.98
2023-04-10T04:40:12.308Z,3.00
2023-04-10T04:41:12.294Z,2.95
2023-04-10T04:42:12.285Z,2.93
2023-04-10T04:43:12.295Z,2.95
2023-04-10T04:44:12.271Z,2.90
2023-04-10T04:45:12.229Z,2.92
2023-04-10T04:46:12.270Z,2.95
2023-04-10T04:47:12.213Z,3.00
2023-04-10T04:48:12.240Z,3.01
2023-04-10T04:49:12.195Z,3.03
2023-04-10T04:50:12.189Z,3.04
2023-04-10T04:51:12.180Z,3.03
2023-04-10T04:52:12.169Z,3.05
2023-04-10T04:53:12.162Z,3.03
2023-04-10T04:54:12.215Z,3.05
2023-04-10T04:55:12.144Z,3.03
2023-04-10T04:56:12.161Z,3.03
2023-04-10T04:57:12.135Z,3.05
2023-04-10T04:58:12.126Z,3.05
2023-04-10T04:59:12.107Z,3.05
2023-04-10T05:00:12.124Z,3.05
2023-04-10T05:01:12.137Z,3.04
2023-04-10T05:02:12.101Z,3.07
2023-04-10T05:03:12.136Z,3.08
2023-04-10T05:04:12.069Z,3.08
2023-04-10T05:05:12.030Z,3.08
2023-04-10T05:06:12.082Z,3.10
2023-04-10T05:07:12.005Z,3.07
2023-04-10T05:08:12.004Z,3.07
2023-04-10T05:09:11.996Z,3.07
2023-04-10T05:10:12.011Z,3.05
2023-04-10T05:11:11.975Z,3.05
2023-04-10T05:12:11.973Z,3.07
2023-04-10T05:13:11.949Z,3.05
2023-04-10T05:14:11.952Z,3.05
2023-04-10T05:15:11.918Z,3.08
2023-04-10T05:16:11.966Z,3.08
2023-04-10T05:17:11.897Z,3.10
2023-04-10T05:18:11.953Z,3.13
2023-04-10T05:19:11.887Z,3.14
2023-04-10T05:20:11.880Z,3.16
2023-04-10T05:21:11.864Z,3.19
2023-04-10T05:22:11.886Z,3.22
2023-04-10T05:23:11.857Z,3.22
2023-04-10T05:24:11.843Z,3.25
2023-04-10T05:25:11.861Z,3.26
2023-04-10T05:26:11.840Z,3.28
2023-04-10T05:27:11.883Z,3.29
2023-04-10T05:28:11.818Z,3.32
2023-04-10T05:29:11.796Z,3.34
2023-04-10T05:30:11.785Z,3.36
2023-04-10T05:31:11.880Z,3.36
2023-04-10T05:32:11.814Z,3.40
2023-04-10T05:33:11.766Z,3.41
2023-04-10T05:34:11.779Z,3.42
2023-04-10T05:35:11.716Z,3.47
2023-04-10T05:36:11.751Z,3.47
2023-04-10T05:37:11.717Z,3.44
2023-04-10T05:38:11.732Z,3.40
2023-04-10T05:39:11.689Z,3.36
2023-04-10T05:40:11.697Z,3.29
2023-04-10T05:41:11.679Z,3.25
2023-04-10T05:42:11.701Z,3.21
2023-04-10T05:43:11.688Z,3.18
2023-04-10T05:44:11.652Z,3.18
2023-04-10T05:45:11.637Z,3.21
2023-04-10T05:46:11.729Z,3.23
2023-04-10T05:47:11.618Z,3.25
2023-04-10T05:48:11.617Z,3.26
2023-04-10T05:49:11.632Z,3.28
2023-04-10T05:50:11.621Z,3.25
2023-04-10T05:51:11.580Z,3.28
2023-04-10T05:52:11.585Z,3.29
2023-04-10T05:53:11.558Z,3.31
2023-04-10T05:54:11.555Z,3.36
2023-04-10T05:55:11.593Z,3.42
2023-04-10T05:56:11.543Z,3.45
2023-04-10T05:57:11.532Z,3.45
2023-04-10T05:58:11.533Z,3.47
2023-04-10T05:59:11.615Z,3.45
2023-04-10T06:00:11.531Z,3.47
2023-04-10T06:01:11.515Z,3.51
2023-04-10T06:02:11.503Z,3.53
2023-04-10T06:03:11.528Z,3.55
2023-04-10T06:04:11.572Z,3.55
2023-04-10T06:05:11.476Z,3.56
2023-04-10T06:06:11.459Z,3.58
2023-04-10T06:07:11.481Z,3.59
2023-04-10T06:08:11.404Z,3.59
2023-04-10T06:09:11.416Z,3.63
2023-04-10T06:10:11.394Z,3.68
2023-04-10T06:11:11.378Z,3.70
2023-04-10T06:12:11.394Z,3.74
2023-04-10T06:13:11.493Z,3.77
2023-04-10T06:14:11.355Z,3.80
2023-04-10T06:15:11.562Z,3.86
2023-04-10T06:16:11.373Z,3.92
2023-04-10T06:17:11.472Z,3.98
2023-04-10T06:18:11.302Z,4.04
2023-04-10T06:19:11.312Z,4.08
2023-04-10T06:20:11.311Z,4.13
2023-04-10T06:21:11.285Z,4.16
2023-04-10T06:22:11.261Z,4.19
2023-04-10T06:23:11.299Z,4.22
2023-04-10T06:24:12.789Z,4.22
2023-04-10T06:25:11.263Z,4.19
2023-04-10T06:26:11.231Z,4.16
2023-04-10T06:27:11.208Z,4.17
2023-04-10T06:28:11.265Z,4.17
2023-04-10T06:29:11.215Z,4.16
2023-04-10T06:30:11.213Z,4.19
2023-04-10T06:31:11.179Z,4.17
2023-04-10T06:32:11.155Z,4.22
2023-04-10T06:33:11.174Z,4.22
2023-04-10T06:34:11.190Z,4.23
2023-04-10T06:35:11.172Z,4.24
2023-04-10T06:36:11.216Z,4.24
2023-04-10T06:37:11.127Z,4.28
2023-04-10T06:38:11.101Z,4.31
2023-04-10T06:39:11.091Z,4.32
2023-04-10T06:40:11.118Z,4.35
2023-04-10T06:41:11.097Z,4.35
2023-04-10T06:42:11.060Z,4.40
2023-04-10T06:43:11.061Z,4.41
2023-04-10T06:44:11.046Z,4.49
2023-04-10T06:45:11.116Z,4.53
2023-04-10T06:46:11.031Z,4.56
2023-04-10T06:47:11.092Z,4.58
2023-04-10T06:48:11.021Z,4.67
2023-04-10T06:49:11.004Z,4.71
2023-04-10T06:50:11.019Z,4.77
2023-04-10T06:51:11.014Z,4.84
2023-04-10T06:52:10.983Z,4.86
2023-04-10T06:53:10.968Z,4.89
2023-04-10T06:54:10.943Z,4.92
2023-04-10T06:55:10.968Z,4.96
2023-04-10T06:56:11.425Z,5.02
2023-04-10T06:57:11.110Z,5.08
2023-04-10T06:58:10.922Z,5.15
2023-04-10T06:59:10.905Z,5.18
2023-04-10T07:00:10.942Z,5.25
2023-04-10T07:01:10.926Z,5.26
2023-04-10T07:02:10.958Z,5.28
2023-04-10T07:03:10.941Z,5.30
2023-04-10T07:04:10.918Z,5.33
2023-04-10T07:05:10.858Z,5.35
2023-04-10T07:06:10.873Z,5.41
2023-04-10T07:07:10.829Z,5.46
2023-04-10T07:08:10.820Z,5.51
2023-04-10T07:09:10.799Z,5.57
2023-04-10T07:10:10.830Z,5.64
2023-04-10T07:11:10.793Z,5.69
2023-04-10T07:12:10.790Z,5.73
2023-04-10T07:13:10.779Z,5.80
2023-04-10T07:14:10.763Z,5.86
2023-04-10T07:15:10.744Z,5.91
2023-04-10T07:16:10.772Z,5.99
2023-04-10T07:17:10.735Z,6.05
2023-04-10T07:18:10.760Z,6.12
2023-04-10T07:19:10.715Z,6.17
2023-04-10T07:20:10.690Z,6.22
2023-04-10T07:21:10.692Z,6.26
2023-04-10T07:22:10.672Z,6.31
2023-04-10T07:23:10.683Z,6.36
2023-04-10T07:24:10.703Z,6.42
2023-04-10T07:25:10.645Z,6.51
2023-04-10T07:26:10.616Z,6.54
2023-04-10T07:27:10.626Z,6.57
2023-04-10T07:28:10.609Z,6.60
2023-04-10T07:29:10.601Z,6.62
2023-04-10T07:30:12.979Z,6.64
2023-04-10T07:31:10.675Z,6.69
2023-04-10T07:32:10.761Z,6.74
2023-04-10T07:33:10.715Z,6.75
2023-04-10T07:34:10.566Z,6.81
2023-04-10T07:35:10.587Z,6.82
2023-04-10T07:36:10.643Z,6.85
2023-04-10T07:37:10.528Z,6.89
2023-04-10T07:38:10.509Z,6.96
2023-04-10T07:39:10.523Z,7.02
2023-04-10T07:40:10.523Z,7.11
2023-04-10T07:41:10.529Z,7.18
2023-04-10T07:42:10.459Z,7.24
2023-04-10T07:43:10.475Z,7.31
2023-04-10T07:44:10.437Z,7.35
2023-04-10T07:45:10.429Z,7.40
2023-04-10T07:46:10.463Z,7.45
2023-04-10T07:47:10.436Z,7.53
2023-04-10T07:48:10.400Z,7.54
2023-04-10T07:49:10.412Z,7.61
2023-04-10T07:50:10.410Z,7.70
2023-04-10T07:51:10.390Z,7.75
2023-04-10T07:52:10.418Z,7.83
2023-04-10T07:53:10.352Z,7.90
2023-04-10T07:54:10.337Z,7.97
2023-04-10T07:55:10.349Z,8.03
2023-04-10T07:56:10.316Z,8.09
2023-04-10T07:57:10.337Z,8.15
2023-04-10T07:58:10.341Z,8.18
2023-04-10T07:59:10.304Z,8.24
2023-04-10T08:00:10.297Z,8.28
2023-04-10T08:01:10.293Z,8.36
2023-04-10T08:02:10.370Z,8.42
2023-04-10T08:03:10.694Z,8.48
2023-04-10T08:04:10.451Z,8.55
2023-04-10T08:05:10.302Z,8.63
2023-04-10T08:06:10.222Z,8.69
2023-04-10T08:07:10.245Z,8.74
2023-04-10T08:08:10.196Z,8.74
2023-04-10T08:09:10.218Z,8.73
2023-04-10T08:10:10.186Z,8.76
2023-04-10T08:11:10.174Z,8.73
2023-04-10T08:12:10.153Z,8.78
2023-04-10T08:13:10.165Z,8.81
2023-04-10T08:14:10.184Z,8.85
2023-04-10T08:15:10.160Z,8.89
2023-04-10T08:16:10.179Z,8.91
2023-04-10T08:17:10.187Z,8.97
2023-04-10T08:18:10.112Z,8.97
2023-04-10T08:19:10.109Z,8.97
2023-04-10T08:20:10.122Z,9.02
2023-04-10T08:21:10.073Z,9.04
2023-04-10T08:22:10.051Z,9.10
2023-04-10T08:23:19.932Z,9.16
2023-04-10T08:24:10.044Z,9.21
2023-04-10T08:25:10.086Z,9.28
2023-04-10T08:26:10.038Z,9.36
2023-04-10T08:27:10.038Z,9.41
2023-04-10T08:28:10.006Z,9.47
2023-04-10T08:29:09.994Z,9.48
2023-04-10T08:30:09.977Z,9.51
2023-04-10T08:31:10.028Z,9.56
2023-04-10T08:32:10.011Z,9.61
2023-04-10T08:33:09.949Z,9.66
2023-04-10T08:34:09.949Z,9.73
2023-04-10T08:35:09.945Z,9.80
2023-04-10T08:36:09.990Z,9.87
2023-04-10T08:37:11.865Z,9.95
2023-04-10T08:38:13.996Z,9.99
2023-04-10T08:39:09.906Z,10.02
2023-04-10T08:40:09.896Z,10.04
2023-04-10T08:41:09.895Z,10.09
2023-04-10T08:42:09.862Z,10.13
2023-04-10T08:43:09.876Z,10.15
2023-04-10T08:44:09.853Z,10.16
2023-04-10T08:45:09.857Z,10.15
2023-04-10T08:46:09.936Z,10.17
2023-04-10T08:47:09.812Z,10.19
2023-04-10T08:48:09.818Z,10.23
2023-04-10T08:49:09.802Z,10.30
2023-04-10T08:50:09.777Z,10.38
2023-04-10T08:51:15.504Z,10.48
2023-04-10T08:52:09.808Z,10.56
2023-04-10T08:53:09.763Z,10.61
2023-04-10T08:54:09.799Z,10.69
2023-04-10T08:55:09.742Z,10.78
2023-04-10T08:56:09.731Z,10.84
2023-04-10T08:57:11.048Z,10.89
2023-04-10T08:58:09.700Z,10.96
2023-04-10T08:59:09.703Z,11.00
2023-04-10T09:00:22.531Z,11.07
2023-04-10T09:01:09.687Z,11.10
2023-04-10T09:02:09.730Z,11.14
2023-04-10T09:03:09.783Z,11.17
2023-04-10T09:04:09.784Z,11.18
2023-04-10T09:05:09.658Z,11.22
2023-04-10T09:06:09.647Z,11.22
2023-04-10T09:07:09.633Z,11.25
2023-04-10T09:08:09.626Z,11.26
2023-04-10T09:09:09.593Z,11.30
2023-04-10T09:10:09.595Z,11.35
2023-04-10T09:11:09.601Z,11.41
2023-04-10T09:12:09.574Z,11.47
2023-04-10T09:13:09.539Z,11.52
2023-04-10T09:14:09.553Z,11.59
2023-04-10T09:15:09.543Z,11.65
2023-04-10T09:16:09.614Z,11.65
2023-04-10T09:17:09.522Z,11.68
2023-04-10T09:18:09.634Z,11.70
2023-04-10T09:19:09.495Z,11.72
2023-04-10T09:20:09.493Z,11.73
2023-04-10T09:21:09.484Z,11.75
2023-04-10T09:22:09.506Z,11.77
2023-04-10T09:23:09.456Z,11.78
2023-04-10T09:24:09.456Z,11.80
2023-04-10T09:25:09.432Z,11.81
2023-04-10T09:26:09.413Z,11.80
2023-04-10T09:27:09.403Z,11.83
2023-04-10T09:28:09.428Z,11.86
2023-04-10T09:29:09.399Z,11.87
2023-04-10T09:30:09.381Z,11.90
2023-04-10T09:31:09.463Z,11.94
2023-04-10T09:32:09.368Z,11.99
2023-04-10T09:33:09.411Z,12.00
2023-04-10T09:34:09.339Z,12.00
2023-04-10T09:35:09.435Z,12.02
2023-04-10T09:36:09.313Z,12.00
2023-04-10T09:37:09.300Z,12.04
2023-04-10T09:38:09.303Z,12.10
2023-04-10T09:39:09.300Z,12.12
2023-04-10T09:40:09.304Z,12.17
2023-04-10T09:41:09.295Z,12.20
2023-04-10T09:42:09.255Z,12.20
2023-04-10T09:43:09.301Z,12.21
2023-04-10T09:44:09.276Z,12.24
2023-04-10T09:45:09.227Z,12.24
2023-04-10T09:46:09.243Z,12.27
2023-04-10T09:47:09.221Z,12.29
2023-04-10T09:48:09.219Z,12.35
2023-04-10T09:49:09.220Z,12.40
2023-04-10T09:50:09.166Z,12.45
2023-04-10T09:51:09.185Z,12.47
2023-04-10T09:52:09.146Z,12.50
2023-04-10T09:53:09.184Z,12.54
2023-04-10T09:54:09.149Z,12.55
2023-04-10T09:55:09.119Z,12.58
2023-04-10T09:56:09.115Z,12.57
2023-04-10T09:57:09.120Z,12.60
2023-04-10T09:58:09.106Z,12.62
2023-04-10T09:59:09.114Z,12.64
2023-04-10T10:00:09.092Z,12.68
2023-04-10T10:01:09.061Z,12.68
2023-04-10T10:02:09.124Z,12.70
2023-04-10T10:03:09.232Z,12.72
2023-04-10T10:04:09.056Z,12.72
2023-04-10T10:05:09.207Z,12.75
2023-04-10T10:06:09.021Z,12.75
2023-04-10T10:07:09.006Z,12.78
2023-04-10T10:08:08.987Z,12.82
2023-04-10T10:09:08.991Z,12.85
2023-04-10T10:10:09.257Z,12.90
2023-04-10T10:11:08.974Z,12.93
2023-04-10T10:12:08.947Z,12.95
2023-04-10T10:13:08.928Z,13.00
2023-04-10T10:14:08.924Z,13.00
2023-04-10T10:15:09.316Z,13.01
2023-04-10T10:16:08.991Z,13.01
2023-04-10T10:17:08.905Z,13.03
2023-04-10T10:18:08.892Z,13.05
2023-04-10T10:19:08.876Z,13.09
2023-04-10T10:20:08.875Z,13.12
2023-04-10T10:21:08.902Z,13.12
2023-04-10T10:22:08.858Z,13.13
2023-04-10T10:23:08.850Z,13.16
2023-04-10T10:24:08.836Z,13.19
2023-04-10T10:25:08.821Z,13.19
2023-04-10T10:26:08.852Z,13.23
2023-04-10T10:27:08.804Z,13.27
2023-04-10T10:28:08.801Z,13.28
2023-04-10T10:29:08.785Z,13.33
2023-04-10T10:30:25.364Z,13.37
2023-04-10T10:31:08.795Z,13.38
2023-04-10T10:32:08.771Z,13.33
2023-04-10T10:33:08.761Z,13.30
2023-04-10T10:34:08.745Z,13.35
2023-04-10T10:35:08.728Z,13.38
2023-04-10T10:36:08.729Z,13.42
2023-04-10T10:37:08.732Z,13.47
2023-04-10T10:38:08.689Z,13.50
2023-04-10T10:39:08.678Z,13.54
2023-04-10T10:40:08.669Z,13.59
2023-04-10T10:41:08.676Z,13.63
2023-04-10T10:42:08.650Z,13.65
2023-04-10T10:43:08.660Z,13.67
2023-04-10T10:44:08.632Z,13.68
2023-04-10T10:45:08.616Z,13.72
2023-04-10T10:46:08.722Z,13.77
2023-04-10T10:47:08.606Z,13.77
2023-04-10T10:48:08.623Z,13.79
2023-04-10T10:49:08.638Z,13.79
2023-04-10T10:50:08.583Z,13.81
2023-04-10T10:51:08.600Z,13.85
2023-04-10T10:52:08.559Z,13.83
2023-04-10T10:53:08.526Z,13.85
2023-04-10T10:54:08.530Z,13.83
2023-04-10T10:55:08.513Z,13.85
2023-04-10T10:56:08.510Z,13.85
2023-04-10T10:57:08.513Z,13.85
2023-04-10T10:58:08.486Z,13.85
2023-04-10T10:59:08.460Z,13.85
2023-04-10T11:00:08.468Z,13.85
2023-04-10T11:01:10.310Z,13.86
2023-04-10T11:02:08.529Z,13.86
2023-04-10T11:03:08.708Z,13.89
2023-04-10T11:04:08.512Z,13.89
2023-04-10T11:05:08.410Z,13.93
2023-04-10T11:06:08.405Z,13.97
2023-04-10T11:07:08.382Z,14.00
2023-04-10T11:08:08.650Z,14.03
2023-04-10T11:09:08.387Z,14.07
2023-04-10T11:10:08.389Z,14.10
2023-04-10T11:11:08.419Z,14.14
2023-04-10T11:12:08.354Z,14.17
2023-04-10T11:13:08.342Z,14.20
2023-04-10T11:14:08.371Z,14.25
2023-04-10T11:15:08.321Z,14.22
2023-04-10T11:16:08.382Z,14.20
2023-04-10T11:17:08.530Z,14.20
2023-04-10T11:18:08.285Z,14.20
2023-04-10T11:19:14.024Z,14.22
2023-04-10T11:20:08.284Z,14.22
2023-04-10T11:21:08.248Z,14.23
2023-04-10T11:22:08.730Z,14.25
2023-04-10T11:23:08.245Z,14.26
2023-04-10T11:24:08.217Z,14.20
2023-04-10T11:25:08.229Z,14.18
2023-04-10T11:26:08.206Z,14.17
2023-04-10T11:27:08.193Z,14.20
2023-04-10T11:28:08.182Z,14.22
2023-04-10T11:29:08.162Z,14.25
2023-04-10T11:30:08.195Z,14.23
2023-04-10T11:31:08.141Z,14.28
2023-04-10T11:32:08.278Z,14.29
2023-04-10T11:33:08.203Z,14.32
2023-04-10T11:34:08.151Z,14.35
2023-04-10T11:35:08.101Z,14.37
2023-04-10T11:36:08.114Z,14.41
2023-04-10T11:37:08.096Z,14.47
2023-04-10T11:38:08.086Z,14.53
2023-04-10T11:39:08.067Z,14.58
2023-04-10T11:40:08.063Z,14.58
2023-04-10T11:41:08.069Z,14.60
2023-04-10T11:42:08.030Z,14.59
2023-04-10T11:43:08.018Z,14.59
2023-04-10T11:44:08.001Z,14.62
2023-04-10T11:45:07.990Z,14.62
2023-04-10T11:46:08.186Z,14.65
2023-04-10T11:47:07.979Z,14.63
2023-04-10T11:48:08.045Z,14.63
2023-04-10T11:49:07.973Z,14.65
2023-04-10T11:50:07.961Z,14.62
2023-04-10T11:51:07.955Z,14.58
2023-04-10T11:52:07.951Z,14.53
2023-04-10T11:53:07.956Z,14.54
2023-04-10T11:54:07.923Z,14.55
2023-04-10T11:55:07.894Z,14.59
2023-04-10T11:56:07.914Z,14.62
2023-04-10T11:57:07.860Z,14.68
2023-04-10T11:58:07.895Z,14.72
2023-04-10T11:59:08.046Z,14.79
2023-04-10T12:00:07.851Z,14.82
2023-04-10T12:01:07.835Z,14.85
2023-04-10T12:02:08.030Z,14.89
2023-04-10T12:03:08.001Z,14.92
2023-04-10T12:04:08.069Z,14.97
2023-04-10T12:05:07.804Z,15.02
2023-04-10T12:06:07.819Z,15.06
2023-04-10T12:07:07.785Z,15.03
2023-04-10T12:08:07.788Z,15.06
2023-04-10T12:09:08.211Z,15.07
2023-04-10T12:10:07.755Z,15.09
2023-04-10T12:11:07.752Z,15.11
2023-04-10T12:12:07.845Z,15.14
2023-04-10T12:13:07.777Z,15.19
2023-04-10T12:14:07.705Z,15.24
2023-04-10T12:15:07.707Z,15.24
2023-04-10T12:16:07.860Z,15.24
2023-04-10T12:17:07.700Z,15.27
2023-04-10T12:18:07.731Z,15.29
2023-04-10T12:19:07.651Z,15.31
2023-04-10T12:20:07.689Z,15.31
2023-04-10T12:21:08.588Z,15.33
2023-04-10T12:22:07.779Z,15.33
2023-04-10T12:23:07.594Z,15.31
2023-04-10T12:24:07.602Z,15.36
2023-04-10T12:25:07.582Z,15.33
2023-04-10T12:26:07.607Z,15.25
2023-04-10T12:27:07.584Z,15.25
2023-04-10T12:28:07.547Z,15.24
2023-04-10T12:29:07.550Z,15.21
2023-04-10T12:30:07.550Z,15.21
2023-04-10T12:31:07.596Z,15.27
2023-04-10T12:32:07.565Z,15.31
2023-04-10T12:33:07.632Z,15.36
2023-04-10T12:34:09.834Z,15.43
2023-04-10T12:35:07.490Z,15.47
2023-04-10T12:36:07.485Z,15.51
2023-04-10T12:37:07.505Z,15.54
2023-04-10T12:38:07.451Z,15.61
2023-04-10T12:39:07.441Z,15.65
2023-04-10T12:40:07.433Z,15.67
2023-04-10T12:41:07.439Z,15.75
2023-04-10T12:42:07.427Z,15.76
2023-04-10T12:43:07.448Z,15.79
2023-04-10T12:44:07.405Z,15.83
2023-04-10T12:45:07.407Z,15.83
2023-04-10T12:46:07.401Z,15.83
2023-04-10T12:47:07.373Z,15.88
2023-04-10T12:48:07.409Z,15.91
2023-04-10T12:49:07.344Z,15.95
2023-04-10T12:50:07.336Z,15.98
2023-04-10T12:51:07.324Z,15.97
2023-04-10T12:52:07.322Z,16.01
2023-04-10T12:53:07.312Z,16.02
2023-04-10T12:54:07.341Z,16.05
2023-04-10T12:55:07.321Z,16.09
2023-04-10T12:56:07.289Z,16.09
2023-04-10T12:57:07.282Z,16.09
2023-04-10T12:58:07.275Z,16.09
2023-04-10T12:59:07.284Z,16.12
2023-04-10T13:00:07.251Z,16.16
2023-04-10T13:01:07.234Z,16.20
2023-04-10T13:02:07.387Z,16.24
2023-04-10T13:03:07.262Z,16.29
2023-04-10T13:04:07.267Z,16.33
2023-04-10T13:05:07.198Z,16.39
2023-04-10T13:06:07.163Z,16.47
2023-04-10T13:07:07.158Z,16.50
2023-04-10T13:08:07.154Z,16.50
2023-04-10T13:09:07.136Z,16.54